Tom Cotton — WDI2387 — position and weather

sailwx.info

Track history (hours):
 
Tides and Currents Weather Stations Pressure Air Temp Water Temp Dewpoint Dewpoint Depression Visibility Wind Speed Wind Dir Waves Ship Positions

Tom Cotton

Owner: Blessey Enterprises, Inc., Harahan, LA. More information available from US FCC via Universal Licensing System and Coast Guard Vessel Documentation Center.

Last reported at 2017-Nov-20 00:30 UTC. Time now 2017-Nov-20 12:11 UTC.
Position N 30°06' W 093°18'.

Length 21 m; draft 2.7 m.

Type: Towing. MMSI: 367677650.

Date/timePositionNaut miles runAvg speedWind from/ knotsBaromVisibWave heightAir tempDewpointWater temp
2017-Nov-20 00:30N 30°06' W 093°18'0 0.0
2017-Nov-20 00:00N 30°06' W 093°18'0 0.2
2017-Nov-19 23:30N 30°06' W 093°18'0 0.3
2017-Nov-19 23:00N 30°06' W 093°18'1 1.0
2017-Nov-19 22:30N 30°06' W 093°19'0 0.1
2017-Nov-19 22:00N 30°06' W 093°19'1 3.0
2017-Nov-19 21:30N 30°05' W 093°20'2 3.3
2017-Nov-19 21:00N 30°06' W 093°18'1 1.5
2017-Nov-19 20:30N 30°05' W 093°17'1 1.3
2017-Nov-19 20:00N 30°05' W 093°17'0 0.0
2017-Nov-19 19:30N 30°05' W 093°17'0 0.0
2017-Nov-19 19:00N 30°05' W 093°17'0 0.0
2017-Nov-19 18:30N 30°05' W 093°17'0 0.0
2017-Nov-19 18:00N 30°05' W 093°17'0 0.0
2017-Nov-19 17:30N 30°05' W 093°17'0 0.0
2017-Nov-19 17:00N 30°05' W 093°17'0 0.5
2017-Nov-19 16:30N 30°05' W 093°17'0 0.0
2017-Nov-19 16:00N 30°05' W 093°17'0 0.0
2017-Nov-19 15:30N 30°05' W 093°17'0 0.0
2017-Nov-19 15:00N 30°05' W 093°17'0 1.0
2017-Nov-19 14:30N 30°04' W 093°16'1 1.6
2017-Nov-19 14:00N 30°03' W 093°16'0 0.0
2017-Nov-19 13:30N 30°03' W 093°16'1 1.9
2017-Nov-19 13:00N 30°03' W 093°16'3 5.7
2017-Nov-19 12:30N 30°00' W 093°14'3 6.3
2017-Nov-19 12:00N 29°58' W 093°11'3 5.6
2017-Nov-19 11:30N 29°56' W 093°09'3 5.7
2017-Nov-19 11:00N 29°56' W 093°05'38 5.9
2017-Nov-19 04:35N 29°51' W 092°22'1 6.3
2017-Nov-19 04:27N 29°51' W 092°21'3 6.2
2017-Nov-19 04:00N 29°50' W 092°18'3 6.1
2017-Nov-19 03:30N 29°48' W 092°15'3 5.0
2017-Nov-19 03:00N 29°47' W 092°12'1 1.2
2017-Nov-19 02:30N 29°47' W 092°12'0 0.0
2017-Nov-19 02:00N 29°47' W 092°12'0 0.0
2017-Nov-19 01:30N 29°47' W 092°12'1 2.5
2017-Nov-19 01:00N 29°47' W 092°10'3 6.5
2017-Nov-19 00:30N 29°48' W 092°07'3 6.6
2017-Nov-19 00:00N 29°49' W 092°03'4 7.0
2017-Nov-18 23:30N 29°50' W 091°59'55 5.8
2017-Nov-18 13:57N 29°36' W 090°58'3 6.0
2017-Nov-18 13:29N 29°34' W 090°56'3 6.5
2017-Nov-18 13:00N 29°32' W 090°53'3 6.5
2017-Nov-18 12:30N 29°32' W 090°49'3 6.3
2017-Nov-18 12:00N 29°33' W 090°46'3 5.7
2017-Nov-18 11:30N 29°35' W 090°43'2 4.7
2017-Nov-18 11:00N 29°37' W 090°42'3 6.0
2017-Nov-18 10:30N 29°36' W 090°39'3 5.9
2017-Nov-18 10:00N 29°35' W 090°36'3 6.1
2017-Nov-18 09:30N 29°34' W 090°33'3 6.3
2017-Nov-18 09:00N 29°34' W 090°29'4 6.3
2017-Nov-18 08:23N 29°33' W 090°24'1 0.0
2017-Nov-17 01:31N 29°33' W 090°25'0 6.4
2017-Nov-17 01:29N 29°33' W 090°25'3 6.2
2017-Nov-17 01:00N 29°34' W 090°29'3 6.3
2017-Nov-17 00:30N 29°34' W 090°32'3 5.8
2017-Nov-17 00:00N 29°35' W 090°36'1 2.3
2017-Nov-16 23:30N 29°35' W 090°37'0 0.3
2017-Nov-16 23:00N 29°35' W 090°37'0 0.4
2017-Nov-16 22:30N 29°35' W 090°37'2 5.0
2017-Nov-16 22:00N 29°36' W 090°40'2 4.4
2017-Nov-16 21:30N 29°37' W 090°42'2 4.7
2017-Nov-16 21:00N 29°35' W 090°43'2 4.3
2017-Nov-16 20:30N 29°33' W 090°45'0 0.1
2017-Nov-16 20:00N 29°33' W 090°45'0 0.1
2017-Nov-16 19:30N 29°33' W 090°45'0 0.0
2017-Nov-16 19:00N 29°33' W 090°45'0 0.5
2017-Nov-16 18:30N 29°33' W 090°45'3 5.9
2017-Nov-16 18:00N 29°32' W 090°48'4 6.7
2017-Nov-16 17:25N 29°32' W 090°53'57 4.1
2017-Nov-16 03:39N 29°51' W 091°55'1 6.5
2017-Nov-16 03:30N 29°51' W 091°56'3 6.2
2017-Nov-16 03:00N 29°50' W 091°59'3 6.5
2017-Nov-16 02:30N 29°49' W 092°03'3 6.5
2017-Nov-16 02:00N 29°48' W 092°06'3 6.3
2017-Nov-16 01:30N 29°47' W 092°10'2 4.6
2017-Nov-16 01:00N 29°47' W 092°12'1 1.5
2017-Nov-16 00:30N 29°47' W 092°13'0 0.1
2017-Nov-16 00:00N 29°47' W 092°13'1 2.7
2017-Nov-15 23:30N 29°48' W 092°15'3 6.0
2017-Nov-15 23:00N 29°50' W 092°18'3 5.7
2017-Nov-15 22:30N 29°51' W 092°21'4 4.9
2017-Nov-15 21:46N 29°53' W 092°24'2 5.2
2017-Nov-15 21:20N 29°53' W 092°26'36 5.7
2017-Nov-15 15:08N 29°56' W 093°07'1 5.5
2017-Nov-15 14:59N 29°56' W 093°08'3 5.4
2017-Nov-15 14:30N 29°57' W 093°11'3 5.7
2017-Nov-15 14:00N 29°60' W 093°13'3 5.1
2017-Nov-15 13:30N 30°02' W 093°14'3 5.3
2017-Nov-15 13:00N 30°04' W 093°16'2 4.0
2017-Nov-15 12:30N 30°05' W 093°18'1 1.2
2017-Nov-15 12:00N 30°06' W 093°18'1 1.7
2017-Nov-15 11:30N 30°06' W 093°19'3 6.2
2017-Nov-15 11:00N 30°09' W 093°20'3 6.6
2017-Nov-15 10:30N 30°12' W 093°18'2 4.4
2017-Nov-15 10:00N 30°13' W 093°16'1 2.0
2017-Nov-15 09:30N 30°14' W 093°15'0 0.0
2017-Nov-15 09:00N 30°14' W 093°15'0 0.0
2017-Nov-15 08:30N 30°14' W 093°15'0 0.0
2017-Nov-15 08:00N 30°14' W 093°15'0 0.0
2017-Nov-15 07:30N 30°14' W 093°15'0 0.0
2017-Nov-15 07:00N 30°14' W 093°15'0 0.0
2017-Nov-15 06:30N 30°14' W 093°15'0 0.0
2017-Nov-15 06:00N 30°14' W 093°15'0 0.0
2017-Nov-15 05:30N 30°14' W 093°15'0 0.0
2017-Nov-15 05:00N 30°14' W 093°15'0 0.0
2017-Nov-15 04:30N 30°14' W 093°15'0 0.0
2017-Nov-15 04:00N 30°14' W 093°15'0 0.0
2017-Nov-15 03:30N 30°14' W 093°15'0 0.0
2017-Nov-15 03:00N 30°14' W 093°15'0 0.0
2017-Nov-15 02:28N 30°14' W 093°15'0 0.9
2017-Nov-15 02:00N 30°13' W 093°15'3 6.8
2017-Nov-15 01:30N 30°11' W 093°18'3 6.7
2017-Nov-15 01:00N 30°08' W 093°20'3 6.1
2017-Nov-15 00:30N 30°05' W 093°20'0 0.4
2017-Nov-15 00:00N 30°05' W 093°20'0 0.0
2017-Nov-14 23:30N 30°05' W 093°20'0 0.0
2017-Nov-14 23:00N 30°05' W 093°20'0 0.0
2017-Nov-14 22:30N 30°05' W 093°20'0 0.0
2017-Nov-14 22:00N 30°05' W 093°20'0 0.0
2017-Nov-14 21:30N 30°05' W 093°20'0 0.0
2017-Nov-14 21:00N 30°05' W 093°20'0 0.0
2017-Nov-14 20:30N 30°05' W 093°20'0 0.0
2017-Nov-14 20:00N 30°05' W 093°20'0 0.0
2017-Nov-14 19:30N 30°05' W 093°20'0 0.0
2017-Nov-14 19:00N 30°05' W 093°20'0 0.0
2017-Nov-14 18:30N 30°05' W 093°20'0 0.0
2017-Nov-14 18:00N 30°05' W 093°20'0 0.0
2017-Nov-14 17:30N 30°05' W 093°20'0 0.0
2017-Nov-14 17:00N 30°05' W 093°20'0 0.0
2017-Nov-14 16:30N 30°05' W 093°20'0 0.0
2017-Nov-14 16:00N 30°05' W 093°20'0 0.0
2017-Nov-14 15:30N 30°05' W 093°20'0 0.0
2017-Nov-14 15:00N 30°05' W 093°20'0 0.0
2017-Nov-14 14:30N 30°05' W 093°20'0 0.0
2017-Nov-14 13:59N 30°05' W 093°20'0 0.0
2017-Nov-14 13:30N 30°05' W 093°20'0 0.0
2017-Nov-14 13:00N 30°05' W 093°20'0 0.0
2017-Nov-14 12:30N 30°05' W 093°20'0 0.0
2017-Nov-14 11:57N 30°05' W 093°20'0 0.0
2017-Nov-14 11:25N 30°05' W 093°20'0 0.0
2017-Nov-14 10:59N 30°05' W 093°20'0 0.0
2017-Nov-14 10:29N 30°05' W 093°20'0 0.0
2017-Nov-14 01:42N 30°05' W 093°20'0 0.0
2017-Nov-14 01:29N 30°05' W 093°20'0 0.0
2017-Nov-14 00:59N 30°05' W 093°20'0 0.0
2017-Nov-14 00:29N 30°05' W 093°20'0 0.0
2017-Nov-13 22:49N 30°05' W 093°20'0 0.0
2017-Nov-13 22:29N 30°05' W 093°20'0 0.0
2017-Nov-13 21:59N 30°05' W 093°20'52 1.9
2017-Nov-12 18:46N 29°51' W 092°22'2 5.6
2017-Nov-12 18:29N 29°51' W 092°20'3 5.4
2017-Nov-12 17:59N 29°49' W 092°17'3 6.0
2017-Nov-12 17:28N 29°48' W 092°14'2 5.1
2017-Nov-12 17:00N 29°47' W 092°12'0 0.0
2017-Nov-12 16:30N 29°47' W 092°12'0 0.0
2017-Nov-12 16:00N 29°47' W 092°12'1 1.3
2017-Nov-12 15:30N 29°47' W 092°11'1 1.7
2017-Nov-12 15:00N 29°47' W 092°10'1 2.4
2017-Nov-12 14:28N 29°47' W 092°08'3 5.4
2017-Nov-12 13:56N 29°48' W 092°05'3 5.6
2017-Nov-12 13:28N 29°49' W 092°03'2 5.3
2017-Nov-12 13:00N 29°50' W 091°60'3 5.1
2017-Nov-12 12:30N 29°50' W 091°57'53 5.5
2017-Nov-12 02:48N 29°36' W 090°58'2 7.0
2017-Nov-12 02:30N 29°34' W 090°57'4 7.3
2017-Nov-12 01:59N 29°32' W 090°53'3 7.0
2017-Nov-12 01:30N 29°32' W 090°49'3 6.5
2017-Nov-12 01:00N 29°33' W 090°45'3 5.5
2017-Nov-12 00:30N 29°34' W 090°43'2 4.9
2017-Nov-12 00:00N 29°37' W 090°42'3 6.6
2017-Nov-11 23:30N 29°35' W 090°39'3 5.8
2017-Nov-11 23:00N 29°35' W 090°35'3 5.9
2017-Nov-11 22:30N 29°34' W 090°32'3 6.0
2017-Nov-11 22:00N 29°34' W 090°29'2 0.1
2017-Nov-10 16:02N 29°33' W 090°26'0 6.2
2017-Nov-10 15:59N 29°33' W 090°26'3 6.1
2017-Nov-10 15:30N 29°34' W 090°30'3 6.1
2017-Nov-10 15:00N 29°34' W 090°33'3 5.6
2017-Nov-10 14:30N 29°35' W 090°36'0 0.9
2017-Nov-10 14:00N 29°35' W 090°37'0 0.0
2017-Nov-10 13:30N 29°35' W 090°37'2 4.4
2017-Nov-10 13:00N 29°36' W 090°39'3 5.8
2017-Nov-10 12:30N 29°37' W 090°42'3 5.5
2017-Nov-10 12:00N 29°34' W 090°43'9 5.8
2017-Nov-10 10:25N 29°33' W 090°54'  
Track history (hours):
 
Tides and Currents Weather Stations Pressure Air Temp Water Temp Dewpoint Dewpoint Depression Visibility Wind Speed Wind Dir Waves Ship Positions

Tom Cotton

Owner: Blessey Enterprises, Inc., Harahan, LA. More information available from US FCC via Universal Licensing System and Coast Guard Vessel Documentation Center.

Last reported at 2017-Nov-20 00:30 UTC. Time now 2017-Nov-20 12:11 UTC.
Position N 30°06' W 093°18'.

Length 21 m; draft 2.7 m.

Type: Towing. MMSI: 367677650.

Date/timePositionNaut miles runAvg speedWind from/ knotsBaromVisibWave heightAir tempDewpointWater temp
2017-Nov-20 00:30N 30°06' W 093°18'0 0.0
2017-Nov-20 00:00N 30°06' W 093°18'0 0.2
2017-Nov-19 23:30N 30°06' W 093°18'0 0.3
2017-Nov-19 23:00N 30°06' W 093°18'1 1.0
2017-Nov-19 22:30N 30°06' W 093°19'0 0.1
2017-Nov-19 22:00N 30°06' W 093°19'1 3.0
2017-Nov-19 21:30N 30°05' W 093°20'2 3.3
2017-Nov-19 21:00N 30°06' W 093°18'1 1.5
2017-Nov-19 20:30N 30°05' W 093°17'1 1.3
2017-Nov-19 20:00N 30°05' W 093°17'0 0.0
2017-Nov-19 19:30N 30°05' W 093°17'0 0.0
2017-Nov-19 19:00N 30°05' W 093°17'0 0.0
2017-Nov-19 18:30N 30°05' W 093°17'0 0.0
2017-Nov-19 18:00N 30°05' W 093°17'0 0.0
2017-Nov-19 17:30N 30°05' W 093°17'0 0.0
2017-Nov-19 17:00N 30°05' W 093°17'0 0.5
2017-Nov-19 16:30N 30°05' W 093°17'0 0.0
2017-Nov-19 16:00N 30°05' W 093°17'0 0.0
2017-Nov-19 15:30N 30°05' W 093°17'0 0.0
2017-Nov-19 15:00N 30°05' W 093°17'0 1.0
2017-Nov-19 14:30N 30°04' W 093°16'1 1.6
2017-Nov-19 14:00N 30°03' W 093°16'0 0.0
2017-Nov-19 13:30N 30°03' W 093°16'1 1.9
2017-Nov-19 13:00N 30°03' W 093°16'3 5.7
2017-Nov-19 12:30N 30°00' W 093°14'3 6.3
2017-Nov-19 12:00N 29°58' W 093°11'3 5.6
2017-Nov-19 11:30N 29°56' W 093°09'3 5.7
2017-Nov-19 11:00N 29°56' W 093°05'38 5.9
2017-Nov-19 04:35N 29°51' W 092°22'1 6.3
2017-Nov-19 04:27N 29°51' W 092°21'3 6.2
2017-Nov-19 04:00N 29°50' W 092°18'3 6.1
2017-Nov-19 03:30N 29°48' W 092°15'3 5.0
2017-Nov-19 03:00N 29°47' W 092°12'1 1.2
2017-Nov-19 02:30N 29°47' W 092°12'0 0.0
2017-Nov-19 02:00N 29°47' W 092°12'0 0.0
2017-Nov-19 01:30N 29°47' W 092°12'1 2.5
2017-Nov-19 01:00N 29°47' W 092°10'3 6.5
2017-Nov-19 00:30N 29°48' W 092°07'3 6.6
2017-Nov-19 00:00N 29°49' W 092°03'4 7.0
2017-Nov-18 23:30N 29°50' W 091°59'55 5.8
2017-Nov-18 13:57N 29°36' W 090°58'3 6.0
2017-Nov-18 13:29N 29°34' W 090°56'3 6.5
2017-Nov-18 13:00N 29°32' W 090°53'3 6.5
2017-Nov-18 12:30N 29°32' W 090°49'3 6.3
2017-Nov-18 12:00N 29°33' W 090°46'3 5.7
2017-Nov-18 11:30N 29°35' W 090°43'2 4.7
2017-Nov-18 11:00N 29°37' W 090°42'3 6.0
2017-Nov-18 10:30N 29°36' W 090°39'3 5.9
2017-Nov-18 10:00N 29°35' W 090°36'3 6.1
2017-Nov-18 09:30N 29°34' W 090°33'3 6.3
2017-Nov-18 09:00N 29°34' W 090°29'4 6.3
2017-Nov-18 08:23N 29°33' W 090°24'1 0.0
2017-Nov-17 01:31N 29°33' W 090°25'0 6.4
2017-Nov-17 01:29N 29°33' W 090°25'3 6.2
2017-Nov-17 01:00N 29°34' W 090°29'3 6.3
2017-Nov-17 00:30N 29°34' W 090°32'3 5.8
2017-Nov-17 00:00N 29°35' W 090°36'1 2.3
2017-Nov-16 23:30N 29°35' W 090°37'0 0.3
2017-Nov-16 23:00N 29°35' W 090°37'0 0.4
2017-Nov-16 22:30N 29°35' W 090°37'2 5.0
2017-Nov-16 22:00N 29°36' W 090°40'2 4.4
2017-Nov-16 21:30N 29°37' W 090°42'2 4.7
2017-Nov-16 21:00N 29°35' W 090°43'2 4.3
2017-Nov-16 20:30N 29°33' W 090°45'0 0.1
2017-Nov-16 20:00N 29°33' W 090°45'0 0.1
2017-Nov-16 19:30N 29°33' W 090°45'0 0.0
2017-Nov-16 19:00N 29°33' W 090°45'0 0.5
2017-Nov-16 18:30N 29°33' W 090°45'3 5.9
2017-Nov-16 18:00N 29°32' W 090°48'4 6.7
2017-Nov-16 17:25N 29°32' W 090°53'57 4.1
2017-Nov-16 03:39N 29°51' W 091°55'1 6.5
2017-Nov-16 03:30N 29°51' W 091°56'3 6.2
2017-Nov-16 03:00N 29°50' W 091°59'3 6.5
2017-Nov-16 02:30N 29°49' W 092°03'3 6.5
2017-Nov-16 02:00N 29°48' W 092°06'3 6.3
2017-Nov-16 01:30N 29°47' W 092°10'2 4.6
2017-Nov-16 01:00N 29°47' W 092°12'1 1.5
2017-Nov-16 00:30N 29°47' W 092°13'0 0.1
2017-Nov-16 00:00N 29°47' W 092°13'1 2.7
2017-Nov-15 23:30N 29°48' W 092°15'3 6.0
2017-Nov-15 23:00N 29°50' W 092°18'3 5.7
2017-Nov-15 22:30N 29°51' W 092°21'4 4.9
2017-Nov-15 21:46N 29°53' W 092°24'2 5.2
2017-Nov-15 21:20N 29°53' W 092°26'36 5.7
2017-Nov-15 15:08N 29°56' W 093°07'1 5.5
2017-Nov-15 14:59N 29°56' W 093°08'3 5.4
2017-Nov-15 14:30N 29°57' W 093°11'3 5.7
2017-Nov-15 14:00N 29°60' W 093°13'3 5.1
2017-Nov-15 13:30N 30°02' W 093°14'3 5.3
2017-Nov-15 13:00N 30°04' W 093°16'2 4.0
2017-Nov-15 12:30N 30°05' W 093°18'1 1.2
2017-Nov-15 12:00N 30°06' W 093°18'1 1.7
2017-Nov-15 11:30N 30°06' W 093°19'3 6.2
2017-Nov-15 11:00N 30°09' W 093°20'3 6.6
2017-Nov-15 10:30N 30°12' W 093°18'2 4.4
2017-Nov-15 10:00N 30°13' W 093°16'1 2.0
2017-Nov-15 09:30N 30°14' W 093°15'0 0.0
2017-Nov-15 09:00N 30°14' W 093°15'0 0.0
2017-Nov-15 08:30N 30°14' W 093°15'0 0.0
2017-Nov-15 08:00N 30°14' W 093°15'0 0.0
2017-Nov-15 07:30N 30°14' W 093°15'0 0.0
2017-Nov-15 07:00N 30°14' W 093°15'0 0.0
2017-Nov-15 06:30N 30°14' W 093°15'0 0.0
2017-Nov-15 06:00N 30°14' W 093°15'0 0.0
2017-Nov-15 05:30N 30°14' W 093°15'0 0.0
2017-Nov-15 05:00N 30°14' W 093°15'0 0.0
2017-Nov-15 04:30N 30°14' W 093°15'0 0.0
2017-Nov-15 04:00N 30°14' W 093°15'0 0.0
2017-Nov-15 03:30N 30°14' W 093°15'0 0.0
2017-Nov-15 03:00N 30°14' W 093°15'0 0.0
2017-Nov-15 02:28N 30°14' W 093°15'0 0.9
2017-Nov-15 02:00N 30°13' W 093°15'3 6.8
2017-Nov-15 01:30N 30°11' W 093°18'3 6.7
2017-Nov-15 01:00N 30°08' W 093°20'3 6.1
2017-Nov-15 00:30N 30°05' W 093°20'0 0.4
2017-Nov-15 00:00N 30°05' W 093°20'0 0.0
2017-Nov-14 23:30N 30°05' W 093°20'0 0.0
2017-Nov-14 23:00N 30°05' W 093°20'0 0.0
2017-Nov-14 22:30N 30°05' W 093°20'0 0.0
2017-Nov-14 22:00N 30°05' W 093°20'0 0.0
2017-Nov-14 21:30N 30°05' W 093°20'0 0.0
2017-Nov-14 21:00N 30°05' W 093°20'0 0.0
2017-Nov-14 20:30N 30°05' W 093°20'0 0.0
2017-Nov-14 20:00N 30°05' W 093°20'0 0.0
2017-Nov-14 19:30N 30°05' W 093°20'0 0.0
2017-Nov-14 19:00N 30°05' W 093°20'0 0.0
2017-Nov-14 18:30N 30°05' W 093°20'0 0.0
2017-Nov-14 18:00N 30°05' W 093°20'0 0.0
2017-Nov-14 17:30N 30°05' W 093°20'0 0.0
2017-Nov-14 17:00N 30°05' W 093°20'0 0.0
2017-Nov-14 16:30N 30°05' W 093°20'0 0.0
2017-Nov-14 16:00N 30°05' W 093°20'0 0.0
2017-Nov-14 15:30N 30°05' W 093°20'0 0.0
2017-Nov-14 15:00N 30°05' W 093°20'0 0.0
2017-Nov-14 14:30N 30°05' W 093°20'0 0.0
2017-Nov-14 13:59N 30°05' W 093°20'0 0.0
2017-Nov-14 13:30N 30°05' W 093°20'0 0.0
2017-Nov-14 13:00N 30°05' W 093°20'0 0.0
2017-Nov-14 12:30N 30°05' W 093°20'0 0.0
2017-Nov-14 11:57N 30°05' W 093°20'0 0.0
2017-Nov-14 11:25N 30°05' W 093°20'0 0.0
2017-Nov-14 10:59N 30°05' W 093°20'0 0.0
2017-Nov-14 10:29N 30°05' W 093°20'0 0.0
2017-Nov-14 01:42N 30°05' W 093°20'0 0.0
2017-Nov-14 01:29N 30°05' W 093°20'0 0.0
2017-Nov-14 00:59N 30°05' W 093°20'0 0.0
2017-Nov-14 00:29N 30°05' W 093°20'0 0.0
2017-Nov-13 22:49N 30°05' W 093°20'0 0.0
2017-Nov-13 22:29N 30°05' W 093°20'0 0.0
2017-Nov-13 21:59N 30°05' W 093°20'52 1.9
2017-Nov-12 18:46N 29°51' W 092°22'2 5.6
2017-Nov-12 18:29N 29°51' W 092°20'3 5.4
2017-Nov-12 17:59N 29°49' W 092°17'3 6.0
2017-Nov-12 17:28N 29°48' W 092°14'2 5.1
2017-Nov-12 17:00N 29°47' W 092°12'0 0.0
2017-Nov-12 16:30N 29°47' W 092°12'0 0.0
2017-Nov-12 16:00N 29°47' W 092°12'1 1.3
2017-Nov-12 15:30N 29°47' W 092°11'1 1.7
2017-Nov-12 15:00N 29°47' W 092°10'1 2.4
2017-Nov-12 14:28N 29°47' W 092°08'3 5.4
2017-Nov-12 13:56N 29°48' W 092°05'3 5.6
2017-Nov-12 13:28N 29°49' W 092°03'2 5.3
2017-Nov-12 13:00N 29°50' W 091°60'3 5.1
2017-Nov-12 12:30N 29°50' W 091°57'53 5.5
2017-Nov-12 02:48N 29°36' W 090°58'2 7.0
2017-Nov-12 02:30N 29°34' W 090°57'4 7.3
2017-Nov-12 01:59N 29°32' W 090°53'3 7.0
2017-Nov-12 01:30N 29°32' W 090°49'3 6.5
2017-Nov-12 01:00N 29°33' W 090°45'3 5.5
2017-Nov-12 00:30N 29°34' W 090°43'2 4.9
2017-Nov-12 00:00N 29°37' W 090°42'3 6.6
2017-Nov-11 23:30N 29°35' W 090°39'3 5.8
2017-Nov-11 23:00N 29°35' W 090°35'3 5.9
2017-Nov-11 22:30N 29°34' W 090°32'3 6.0
2017-Nov-11 22:00N 29°34' W 090°29'2 0.1
2017-Nov-10 16:02N 29°33' W 090°26'0 6.2
2017-Nov-10 15:59N 29°33' W 090°26'3 6.1
2017-Nov-10 15:30N 29°34' W 090°30'3 6.1
2017-Nov-10 15:00N 29°34' W 090°33'3 5.6
2017-Nov-10 14:30N 29°35' W 090°36'0 0.9
2017-Nov-10 14:00N 29°35' W 090°37'0 0.0
2017-Nov-10 13:30N 29°35' W 090°37'2 4.4
2017-Nov-10 13:00N 29°36' W 090°39'3 5.8
2017-Nov-10 12:30N 29°37' W 090°42'3 5.5
2017-Nov-10 12:00N 29°34' W 090°43'9 5.8
2017-Nov-10 10:25N 29°33' W 090°54'  

Dump ship's entire track history